Time;durP1;ratioP1;P1;durP2;ratioP2;P2;SDS_P1;SDS_P2;PMS_P1;PMS_P2;Temp;Humidity;BMP_temperature;BMP_pressure;BME280_temperature;BME280_humidity;BME280_pressure;Samples;Min_cycle;Max_cycle;Signal;HPM_P1;HPM_P2
2022/03/20 00:01:53;;;;;;;15.30;8.73;;;;;;;-2.24;47.11;97502.00;5086049;28;20093;-65
2022/03/20 00:04:18;;;;;;;17.38;9.02;;;;;;;-2.31;47.21;97503.13;5085736;28;20046;-65
2022/03/20 00:06:44;;;;;;;13.82;8.43;;;;;;;-2.35;46.82;97510.22;5086523;28;20030;-65
2022/03/20 00:09:09;;;;;;;19.90;9.20;;;;;;;-2.30;47.17;97505.69;5085603;28;20031;-66
2022/03/20 00:11:35;;;;;;;15.10;8.00;;;;;;;-2.20;46.57;97505.41;5085975;28;20039;-65
2022/03/20 00:14:00;;;;;;;14.18;7.80;;;;;;;-2.15;46.86;97507.03;5085822;28;20028;-65
2022/03/20 00:16:29;;;;;;;19.42;8.95;;;;;;;-2.18;46.58;97503.63;5085846;28;20403;-66
2022/03/20 00:18:55;;;;;;;13.98;8.20;;;;;;;-2.22;46.47;97509.88;5085813;28;20031;-66
2022/03/20 00:21:20;;;;;;;17.40;8.80;;;;;;;-2.18;46.17;97506.25;5084917;28;20418;-66
2022/03/20 00:23:46;;;;;;;14.80;8.05;;;;;;;-2.11;46.19;97511.25;5084626;28;20036;-65
2022/03/20 00:26:12;;;;;;;13.65;8.52;;;;;;;-2.15;46.41;97512.28;5085001;28;20501;-65
2022/03/20 00:28:37;;;;;;;18.20;9.70;;;;;;;-1.99;45.86;97507.41;5084477;28;20028;-66
2022/03/20 00:31:03;;;;;;;24.02;10.90;;;;;;;-2.18;46.82;97501.84;5083175;28;20053;-65
2022/03/20 00:33:28;;;;;;;15.02;9.70;;;;;;;-2.27;47.16;97507.38;5085669;28;20047;-65
2022/03/20 00:35:54;;;;;;;18.27;9.77;;;;;;;-2.33;47.50;97508.41;5085554;28;20024;-66
2022/03/20 00:38:19;;;;;;;18.95;9.32;;;;;;;-2.40;47.65;97507.75;5084832;28;20032;-66
2022/03/20 00:40:46;;;;;;;15.90;8.75;;;;;;;-2.37;46.95;97502.38;5085561;28;20032;-65
2022/03/20 00:43:12;;;;;;;15.50;8.70;;;;;;;-2.38;47.46;97505.06;5084614;28;20081;-65
2022/03/20 00:45:37;;;;;;;18.33;10.10;;;;;;;-2.45;47.59;97503.53;5085665;28;20043;-65
2022/03/20 00:48:03;;;;;;;18.25;9.52;;;;;;;-2.53;47.43;97506.38;5085025;28;20494;-66
2022/03/20 00:50:28;;;;;;;20.95;9.95;;;;;;;-2.61;48.50;97507.47;5085146;28;20024;-65
2022/03/20 00:52:54;;;;;;;16.98;10.23;;;;;;;-2.70;48.80;97505.09;5084894;28;20073;-66
2022/03/20 00:55:20;;;;;;;15.18;8.57;;;;;;;-2.71;48.03;97498.13;5084751;28;20101;-65
2022/03/20 00:57:46;;;;;;;13.05;7.80;;;;;;;-2.62;46.96;97503.13;5083722;28;20024;-65
2022/03/20 01:00:12;;;;;;;16.13;7.80;;;;;;;-2.58;46.60;97503.03;5084638;28;20085;-66
2022/03/20 01:02:40;;;;;;;11.73;7.05;;;;;;;-2.61;46.31;97502.19;5085516;28;20038;-65
2022/03/20 01:05:08;;;;;;;14.43;7.25;;;;;;;-2.71;46.89;97506.00;5084791;28;20490;-65
2022/03/20 01:07:34;;;;;;;12.93;6.90;;;;;;;-2.71;46.89;97503.38;5085356;28;20028;-65
2022/03/20 01:10:01;;;;;;;10.98;6.70;;;;;;;-2.68;46.62;97491.91;5084798;28;20051;-64
2022/03/20 01:12:27;;;;;;;16.80;7.47;;;;;;;-2.74;46.69;97500.84;5084743;28;20517;-65
2022/03/20 01:14:53;;;;;;;12.27;7.22;;;;;;;-2.79;46.69;97494.84;5085026;28;20031;-65
2022/03/20 01:17:18;;;;;;;11.43;6.75;;;;;;;-2.87;46.68;97492.44;5084298;28;20036;-65
2022/03/20 01:19:43;;;;;;;13.20;6.95;;;;;;;-2.95;47.14;97494.41;5085285;28;20028;-65
2022/03/20 01:22:09;;;;;;;11.60;6.75;;;;;;;-2.98;47.08;97490.09;5084352;28;20032;-65
2022/03/20 01:24:34;;;;;;;11.95;6.72;;;;;;;-2.92;47.01;97487.31;5085120;28;20032;-65
2022/03/20 01:27:00;;;;;;;9.95;6.28;;;;;;;-2.97;47.15;97481.31;5084536;28;20028;-66
2022/03/20 01:29:25;;;;;;;9.45;6.18;;;;;;;-2.97;47.19;97478.69;5084608;28;20020;-66
2022/03/20 01:31:51;;;;;;;12.20;6.68;;;;;;;-2.90;46.81;97480.25;5084362;28;20061;-66
2022/03/20 01:34:17;;;;;;;14.07;6.25;;;;;;;-2.89;47.26;97484.59;5087257;28;20024;-66
2022/03/20 01:36:43;;;;;;;13.15;7.43;;;;;;;-2.90;46.64;97477.63;5088892;28;20032;-64
2022/03/20 01:39:08;;;;;;;12.65;7.18;;;;;;;-2.92;46.84;97482.06;5088342;28;20434;-64
2022/03/20 01:41:33;;;;;;;18.48;7.93;;;;;;;-2.97;47.77;97478.69;5088769;28;20044;-65
2022/03/20 01:44:00;;;;;;;14.73;8.13;;;;;;;-3.01;47.94;97477.91;5088282;28;20782;-65
2022/03/20 01:46:25;;;;;;;15.32;9.02;;;;;;;-3.06;47.84;97482.44;5088885;28;20034;-66
2022/03/20 01:48:51;;;;;;;15.40;7.68;;;;;;;-3.12;47.59;97478.22;5088393;28;20812;-65
2022/03/20 01:51:16;;;;;;;17.77;9.48;;;;;;;-3.14;48.10;97485.25;5088568;28;20037;-65
2022/03/20 01:53:42;;;;;;;15.13;8.85;;;;;;;-3.19;48.88;97486.31;5088323;28;20126;-65
2022/03/20 01:56:08;;;;;;;17.75;9.18;;;;;;;-3.16;47.88;97492.31;5088265;28;20392;-65
2022/03/20 01:58:33;;;;;;;23.35;11.27;;;;;;;-3.24;48.36;97489.06;5088434;28;20375;-65
2022/03/20 02:00:59;;;;;;;27.13;13.20;;;;;;;-3.32;48.01;97488.38;5088297;28;20035;-65
2022/03/20 02:03:25;;;;;;;26.40;13.32;;;;;;;-3.42;48.72;97503.50;5088771;28;20538;-65
2022/03/20 02:05:51;;;;;;;24.80;11.68;;;;;;;-3.52;49.09;97502.88;5088123;28;20482;-65
2022/03/20 02:08:16;;;;;;;19.70;11.60;;;;;;;-3.57;49.85;97496.88;5087177;28;20036;-65
2022/03/20 02:10:43;;;;;;;22.58;12.25;;;;;;;-3.64;49.86;97497.03;5086536;28;20047;-65
2022/03/20 02:13:08;;;;;;;23.48;11.27;;;;;;;-3.77;51.05;97506.09;5087913;28;20430;-65
2022/03/20 02:15:34;;;;;;;20.85;10.88;;;;;;;-3.83;51.10;97503.59;5087978;28;20027;-65
2022/03/20 02:18:00;;;;;;;18.73;10.93;;;;;;;-3.89;51.24;97500.25;5087911;28;20028;-65
2022/03/20 02:20:29;;;;;;;19.60;10.10;;;;;;;-3.86;51.30;97501.94;5087032;28;20452;-65
2022/03/20 02:22:55;;;;;;;23.40;10.20;;;;;;;-3.85;51.65;97507.13;5086291;28;20040;-66
2022/03/20 02:25:20;;;;;;;21.67;10.32;;;;;;;-3.78;51.01;97504.34;5088220;28;20383;-66
2022/03/20 02:27:46;;;;;;;19.27;11.05;;;;;;;-3.82;50.46;97508.81;5086014;28;20321;-66
2022/03/20 02:30:15;;;;;;;22.05;11.65;;;;;;;-3.93;50.22;97506.44;5088174;28;20052;-65
2022/03/20 02:32:44;;;;;;;21.17;11.30;;;;;;;-4.00;50.82;97499.63;5087492;28;20044;-65
2022/03/20 02:35:17;;;;;;;27.10;11.68;;;;;;;-4.01;50.96;97497.88;5087735;28;20056;-66
2022/03/20 02:37:47;;;;;;;20.17;11.43;;;;;;;-4.07;51.91;97508.53;5087914;28;20028;-66
2022/03/20 02:40:13;;;;;;;24.23;11.95;;;;;;;-4.04;51.34;97500.59;5087900;28;20040;-66
2022/03/20 02:42:40;;;;;;;23.27;11.27;;;;;;;-4.00;51.14;97499.63;5087777;28;20483;-66
2022/03/20 02:45:13;;;;;;;20.67;11.65;;;;;;;-4.00;51.29;97504.88;5086400;28;20407;-65
2022/03/20 02:47:38;;;;;;;;;;;;;;;-4.05;51.34;97496.25;5087682;28;20103;-65
2022/03/20 02:50:08;;;;;;;20.38;10.98;;;;;;;-4.20;51.24;97495.69;5087879;28;20061;-65
2022/03/20 02:52:39;;;;;;;22.63;10.85;;;;;;;-4.23;51.64;97501.88;5087127;28;20107;-66
2022/03/20 02:55:04;;;;;;;20.98;11.13;;;;;;;-4.17;51.56;97493.00;5087757;28;20490;-65
2022/03/20 02:57:30;;;;;;;23.50;11.68;;;;;;;-4.15;51.10;97501.72;5087345;28;20123;-65
2022/03/20 03:00:00;;;;;;;21.98;11.25;;;;;;;-4.23;51.59;97498.38;5087292;28;20843;-64
2022/03/20 03:02:32;;;;;;;24.98;11.25;;;;;;;-4.26;51.78;97494.09;5087121;28;20031;-64
2022/03/20 03:04:59;;;;;;;22.20;11.30;;;;;;;-4.30;52.13;97502.91;5087076;28;20035;-65
2022/03/20 03:07:28;;;;;;;18.63;10.95;;;;;;;-4.17;51.71;97497.38;5087201;28;20548;-64
2022/03/20 03:12:38;;;;;;;20.10;10.82;;;;;;;-4.13;51.97;97501.66;5087884;28;20467;-66
2022/03/20 03:15:19;;;;;;;19.40;10.82;;;;;;;-4.08;51.25;97491.06;5086821;28;20024;-66
2022/03/20 03:17:46;;;;;;;18.40;9.50;;;;;;;-4.05;51.30;97497.13;5086746;28;20052;-66
2022/03/20 03:20:11;;;;;;;20.45;11.38;;;;;;;-4.05;51.34;97497.13;5086810;28;20037;-65
2022/03/20 03:22:37;;;;;;;21.10;10.85;;;;;;;-4.03;50.77;97497.09;5085242;28;20571;-65
2022/03/20 03:25:02;;;;;;;19.52;10.20;;;;;;;-4.11;51.17;97492.88;5087227;28;20252;-66
2022/03/20 03:27:28;;;;;;;24.00;11.48;;;;;;;-4.13;51.15;97499.06;5086523;28;20075;-66
2022/03/20 03:29:53;;;;;;;22.88;11.85;;;;;;;-4.13;51.42;97504.28;5087065;28;20042;-66
2022/03/20 03:32:18;;;;;;;22.42;11.45;;;;;;;-4.14;51.06;97498.19;5085985;28;20052;-65
2022/03/20 03:37:29;;;;;;;23.85;11.60;;;;;;;-4.15;51.16;97506.94;5085774;28;20476;-66
2022/03/20 03:39:55;;;;;;;19.83;10.75;;;;;;;-4.19;51.24;97499.19;5067928;28;20020;-67
2022/03/20 03:42:21;;;;;;;22.85;12.18;;;;;;;-4.25;50.90;97502.78;5086827;28;20043;-66
2022/03/20 03:44:49;;;;;;;21.05;13.00;;;;;;;-4.42;51.43;97498.81;5085915;28;20051;-65
2022/03/20 03:47:14;;;;;;;21.10;11.88;;;;;;;-4.49;51.71;97507.66;5086841;28;20032;-65
2022/03/20 03:49:40;;;;;;;28.17;13.07;;;;;;;-4.54;51.23;97499.03;5086023;28;20019;-65
2022/03/20 03:52:06;;;;;;;21.42;11.85;;;;;;;-4.64;51.62;97507.09;5086237;28;20035;-65
2022/03/20 03:54:31;;;;;;;24.88;12.38;;;;;;;-4.73;52.60;97510.78;5086154;28;20514;-65
2022/03/20 03:56:58;;;;;;;23.60;12.10;;;;;;;-4.80;52.90;97514.41;5085679;28;20854;-65
2022/03/20 03:59:24;;;;;;;26.50;12.57;;;;;;;-4.87;53.03;97508.41;5086216;28;20024;-65
2022/03/20 04:01:49;;;;;;;21.75;12.00;;;;;;;-4.86;53.48;97501.44;5085803;28;20093;-65
2022/03/20 04:04:14;;;;;;;26.98;12.18;;;;;;;-4.80;53.52;97503.09;5086239;28;20036;-65
2022/03/20 04:06:40;;;;;;;20.60;11.18;;;;;;;-4.76;53.44;97504.72;5085575;28;20028;-65
2022/03/20 04:09:05;;;;;;;18.45;10.00;;;;;;;-4.71;52.10;97502.91;5085897;28;20475;-65
2022/03/20 04:11:32;;;;;;;26.85;12.32;;;;;;;-4.69;52.81;97505.47;5085895;28;20591;-65
2022/03/20 04:13:57;;;;;;;27.23;14.55;;;;;;;-4.67;52.54;97495.81;5085888;28;20437;-65
2022/03/20 04:16:23;;;;;;;28.42;13.50;;;;;;;-4.71;52.56;97497.66;5085847;28;20025;-65
2022/03/20 04:18:48;;;;;;;24.83;14.48;;;;;;;-4.85;52.77;97496.16;5085420;28;20024;-65
2022/03/20 04:21:14;;;;;;;25.98;12.82;;;;;;;-4.91;53.55;97492.81;5085578;28;20031;-65
2022/03/20 04:23:43;;;;;;;25.13;12.45;;;;;;;-5.03;54.37;97500.00;5084239;28;20028;-65
2022/03/20 04:26:09;;;;;;;25.35;11.88;;;;;;;-4.94;53.94;97500.72;5085878;28;20251;-65
2022/03/20 04:28:34;;;;;;;25.15;12.23;;;;;;;-4.83;53.31;97501.38;5085464;28;20024;-66
2022/03/20 04:31:00;;;;;;;26.58;13.45;;;;;;;-4.66;53.05;97501.03;5085506;28;20073;-65
2022/03/20 04:33:27;;;;;;;29.83;13.95;;;;;;;-4.67;53.44;97499.31;5085210;28;20047;-66
2022/03/20 04:35:52;;;;;;;29.88;14.82;;;;;;;-4.67;53.27;97499.31;5085749;28;20518;-65
2022/03/20 04:38:21;;;;;;;25.23;12.93;;;;;;;-4.63;52.58;97495.75;5085557;28;20494;-65
2022/03/20 04:40:48;;;;;;;25.35;13.05;;;;;;;-4.62;52.93;97504.44;5084994;28;20426;-66
2022/03/20 04:43:13;;;;;;;22.33;11.60;;;;;;;-4.59;52.42;97507.88;5085569;28;20028;-65
2022/03/20 04:45:39;;;;;;;27.42;13.55;;;;;;;-4.52;52.43;97503.38;5085111;28;20031;-66
2022/03/20 04:59:02;;;;;;;21.95;10.70;;;;;;;-4.34;51.84;97512.56;5085004;28;20031;-65
2022/03/20 05:01:27;;;;;;;19.02;10.65;;;;;;;-4.18;51.66;97517.50;5085092;28;20032;-66
2022/03/20 05:03:52;;;;;;;20.23;11.18;;;;;;;-4.19;51.49;97514.91;5085305;28;20035;-66
2022/03/20 05:06:18;;;;;;;21.25;10.27;;;;;;;-4.10;51.58;97512.09;5084783;28;20504;-65
2022/03/20 05:08:43;;;;;;;20.13;10.75;;;;;;;-3.94;51.15;97512.59;5084729;28;20491;-67
2022/03/20 05:13:53;;;;;;;21.50;9.93;;;;;;;-3.69;49.91;97519.88;5084331;28;20055;-65
2022/03/20 05:16:18;;;;;;;15.65;9.18;;;;;;;-3.43;49.71;97518.38;5084764;28;20418;-65
2022/03/20 05:18:44;;;;;;;15.93;9.95;;;;;;;-3.30;48.83;97525.94;5084764;28;20107;-65
2022/03/20 05:21:10;;;;;;;16.92;8.90;;;;;;;-3.25;48.59;97530.19;5084801;28;20089;-66
2022/03/20 05:23:36;;;;;;;18.48;10.30;;;;;;;-3.09;48.68;97527.13;5084749;28;20020;-65
2022/03/20 05:26:01;;;;;;;22.48;10.15;;;;;;;-2.98;47.36;97527.72;5084976;28;20481;-65
2022/03/20 05:28:27;;;;;;;15.70;9.52;;;;;;;-2.90;47.71;97532.75;5084413;28;20403;-65
2022/03/20 05:30:52;;;;;;;17.20;9.27;;;;;;;-2.71;47.93;97532.28;5084897;28;20028;-65
2022/03/20 05:33:17;;;;;;;15.27;8.30;;;;;;;-2.52;46.50;97531.75;5084460;28;20047;-65
2022/03/20 05:35:45;;;;;;;13.57;7.93;;;;;;;-2.39;46.41;97530.50;5083626;28;20134;-65
2022/03/20 05:38:11;;;;;;;14.90;8.20;;;;;;;-2.26;46.24;97533.59;5084706;28;20044;-65
2022/03/20 05:40:40;;;;;;;14.18;8.65;;;;;;;-2.09;45.98;97528.75;5084508;28;20051;-66
2022/03/20 05:43:08;;;;;;;15.73;8.80;;;;;;;-1.94;45.42;97533.56;5084537;28;20685;-65
2022/03/20 05:45:34;;;;;;;19.15;9.38;;;;;;;-1.71;45.37;97539.00;5084266;28;20077;-66
2022/03/20 05:47:59;;;;;;;16.40;9.38;;;;;;;-1.60;45.91;97543.94;5085030;28;20055;-66
2022/03/20 05:50:25;;;;;;;15.57;9.70;;;;;;;-1.39;45.35;97537.97;5084523;28;20032;-66
2022/03/20 05:52:52;;;;;;;15.55;9.50;;;;;;;-1.19;45.26;97552.25;5084699;28;20024;-65
2022/03/20 05:55:18;;;;;;;16.55;9.27;;;;;;;-1.25;44.99;97545.41;5084581;28;20035;-66
2022/03/20 05:58:01;;;;;;;13.85;9.15;;;;;;;-1.14;44.69;97545.06;5084398;28;20025;-66
2022/03/20 06:00:27;;;;;;;;;;;;;;;-1.00;45.04;97538.47;5085273;28;20414;-66
2022/03/20 06:02:52;;;;;;;16.85;8.85;;;;;;;-0.84;44.76;97537.94;5084099;28;20370;-65
2022/03/20 06:05:18;;;;;;;14.00;8.77;;;;;;;-0.66;44.91;97537.25;5084962;28;20029;-65
2022/03/20 06:07:46;;;;;;;15.70;10.23;;;;;;;-0.49;44.07;97543.72;5084223;28;20024;-65
2022/03/20 06:10:20;;;;;;;19.10;10.45;;;;;;;-0.26;43.31;97539.38;5084227;28;20042;-65
2022/03/20 06:12:46;;;;;;;15.27;9.55;;;;;;;-0.17;44.03;97543.44;5084428;28;20078;-66
2022/03/20 06:15:12;;;;;;;16.17;9.82;;;;;;;-0.01;43.07;97549.84;5084080;28;20492;-67
2022/03/20 06:17:47;;;;;;;16.00;9.10;;;;;;;0.16;42.31;97540.41;5084460;28;20475;-65
2022/03/20 06:20:14;;;;;;;14.13;8.93;;;;;;;0.29;41.62;97553.97;5084763;28;20032;-65
2022/03/20 06:22:41;;;;;;;15.50;8.98;;;;;;;0.52;41.00;97546.06;5088070;28;20456;-65
2022/03/20 06:25:08;;;;;;;16.33;9.18;;;;;;;0.90;39.89;97545.44;5087709;28;20055;-66
2022/03/20 06:28:06;;;;;;;15.48;9.23;;;;;;;1.01;39.58;97543.19;5088497;28;20054;-64
2022/03/20 06:30:34;;;;;;;16.48;9.52;;;;;;;1.00;39.32;97541.44;5042704;28;20051;-66
2022/03/20 06:33:02;;;;;;;17.92;9.15;;;;;;;1.24;38.84;97544.00;5086935;28;20040;-65
2022/03/20 06:35:27;;;;;;;16.75;8.63;;;;;;;1.37;38.93;97551.38;5087934;28;20028;-65
2022/03/20 06:37:53;;;;;;;14.40;8.57;;;;;;;1.61;39.48;97549.44;5087097;28;20031;-67
2022/03/20 06:40:19;;;;;;;13.23;8.85;;;;;;;1.76;38.45;97539.09;5087577;28;20462;-66
2022/03/20 06:42:45;;;;;;;15.30;9.20;;;;;;;2.06;37.42;97542.09;5087456;28;20036;-65
2022/03/20 06:45:11;;;;;;;12.90;8.15;;;;;;;2.23;38.00;97545.75;5087371;28;20028;-65
2022/03/20 06:47:37;;;;;;;14.73;8.52;;;;;;;2.22;37.20;97541.41;5087450;28;20024;-65
2022/03/20 06:50:04;;;;;;;15.43;9.30;;;;;;;2.51;36.87;97540.94;5086902;28;20040;-66
2022/03/20 06:52:30;;;;;;;13.27;8.23;;;;;;;2.63;37.04;97539.50;5087555;28;20032;-66
2022/03/20 06:54:57;;;;;;;15.45;9.63;;;;;;;2.76;36.85;97548.53;5087209;28;20039;-64
2022/03/20 06:57:23;;;;;;;19.27;8.45;;;;;;;2.64;36.41;97535.91;5087612;28;20434;-65
2022/03/20 06:59:48;;;;;;;11.77;6.68;;;;;;;2.71;35.96;97542.59;5087228;28;20031;-66
2022/03/20 07:02:15;;;;;;;8.18;5.93;;;;;;;2.69;34.76;97541.84;5087073;28;20017;-65
2022/03/20 07:04:41;;;;;;;8.15;5.57;;;;;;;2.33;34.87;97530.28;5087565;28;20024;-66
2022/03/20 07:07:06;;;;;;;8.02;6.00;;;;;;;2.37;35.21;97536.31;5086810;28;20444;-65
2022/03/20 07:09:32;;;;;;;10.00;5.43;;;;;;;2.07;35.29;97530.59;5087399;28;20020;-66
2022/03/20 07:11:57;;;;;;;10.73;6.10;;;;;;;2.03;36.07;97544.06;5086807;28;20028;-64
2022/03/20 07:14:22;;;;;;;9.52;5.97;;;;;;;2.05;35.83;97536.88;5087071;28;20089;-65
2022/03/20 07:16:48;;;;;;;8.38;5.28;;;;;;;1.82;35.12;97534.38;5086662;28;20024;-66
2022/03/20 07:19:16;;;;;;;11.27;5.75;;;;;;;1.71;35.24;97534.00;5086922;28;20474;-66
2022/03/20 07:21:41;;;;;;;8.40;5.90;;;;;;;1.57;35.70;97538.13;5086503;28;20028;-66
2022/03/20 07:24:07;;;;;;;12.07;5.22;;;;;;;1.88;36.15;97540.31;5087142;28;20024;-64
2022/03/20 07:29:31;;;;;;;8.32;5.25;;;;;;;1.93;34.55;97540.97;5086136;28;20065;-65
2022/03/20 07:32:04;;;;;;;10.00;5.65;;;;;;;2.12;34.33;97530.38;5086565;28;20032;-66
2022/03/20 07:34:30;;;;;;;13.77;5.57;;;;;;;2.04;35.87;97532.53;5086171;28;20162;-65
2022/03/20 07:36:55;;;;;;;8.93;5.40;;;;;;;1.75;34.97;97524.13;5086915;28;20111;-65
2022/03/20 07:39:21;;;;;;;10.88;5.82;;;;;;;1.97;34.88;97534.59;5086205;28;20434;-65
2022/03/20 07:41:46;;;;;;;7.50;5.10;;;;;;;1.62;35.20;97542.34;5086270;28;20028;-67
2022/03/20 07:44:11;;;;;;;10.48;5.57;;;;;;;1.80;34.38;97530.97;5086517;28;20020;-65
2022/03/20 07:46:38;;;;;;;8.13;5.47;;;;;;;1.81;34.29;97535.31;5085672;28;20028;-66
2022/03/20 07:49:04;;;;;;;10.48;5.70;;;;;;;1.75;34.54;97532.94;5086908;28;20036;-65
2022/03/20 07:51:30;;;;;;;15.65;5.18;;;;;;;1.89;34.36;97529.66;5085998;28;20028;-66
2022/03/20 07:53:56;;;;;;;10.52;6.38;;;;;;;2.03;33.95;97528.16;5086661;28;20028;-67
2022/03/20 07:56:22;;;;;;;8.50;5.45;;;;;;;2.21;34.19;97513.19;5085988;28;20028;-66
2022/03/20 07:58:48;;;;;;;8.98;5.60;;;;;;;2.46;33.75;97522.63;5086586;28;20135;-65
2022/03/20 08:01:13;;;;;;;9.98;5.65;;;;;;;2.62;33.26;97511.25;5086341;28;20417;-66
2022/03/20 08:03:41;;;;;;;7.88;5.30;;;;;;;2.40;33.07;97512.31;5085740;28;20061;-64
2022/03/20 08:06:07;;;;;;;9.10;5.50;;;;;;;2.57;32.90;97520.31;5086544;28;20111;-66
2022/03/20 08:08:43;;;;;;;7.18;5.20;;;;;;;2.94;33.14;97522.03;5085590;28;20020;-66
2022/03/20 08:11:08;;;;;;;11.15;5.93;;;;;;;2.88;32.20;97512.63;5086433;28;20107;-67
2022/03/20 08:13:34;;;;;;;7.32;5.40;;;;;;;2.73;32.28;97511.59;5085508;28;20578;-65
2022/03/20 08:16:00;;;;;;;10.23;6.07;;;;;;;2.83;32.61;97509.34;5085810;28;20077;-65
2022/03/20 08:18:26;;;;;;;9.52;6.05;;;;;;;3.05;32.31;97498.50;5085944;28;20024;-65
2022/03/20 08:20:52;;;;;;;8.57;5.13;;;;;;;2.81;32.16;97501.47;5085696;28;20084;-66
2022/03/20 08:23:17;;;;;;;7.97;5.28;;;;;;;3.19;31.88;97502.25;5086030;28;20024;-66
2022/03/20 08:25:43;;;;;;;9.35;5.80;;;;;;;3.01;32.13;97496.94;5085140;28;20028;-66
2022/03/20 08:28:09;;;;;;;7.75;4.90;;;;;;;3.05;31.71;97492.31;5086090;28;20032;-65
2022/03/20 08:30:36;;;;;;;10.30;5.15;;;;;;;3.17;31.50;97488.19;5085121;28;20055;-66
2022/03/20 08:33:01;;;;;;;8.48;5.30;;;;;;;3.23;31.22;97490.53;5085514;28;20067;-65
2022/03/20 08:35:27;;;;;;;11.50;5.85;;;;;;;3.03;33.00;97492.41;5085365;28;20414;-65
2022/03/20 08:37:53;;;;;;;10.27;6.00;;;;;;;3.39;31.92;97479.09;5085540;28;20501;-66
2022/03/20 08:40:20;;;;;;;11.32;5.57;;;;;;;3.19;31.13;97488.97;5085804;28;20355;-65
2022/03/20 08:42:47;;;;;;;8.73;4.82;;;;;;;3.33;31.27;97481.16;5083934;28;20480;-65
2022/03/20 08:45:12;;;;;;;9.50;5.93;;;;;;;3.61;31.04;97472.66;5085724;28;20027;-66
2022/03/20 08:47:39;;;;;;;7.88;5.35;;;;;;;3.56;31.01;97457.81;5084724;28;20080;-65
2022/03/20 08:50:04;;;;;;;8.77;5.25;;;;;;;3.63;30.16;97476.94;5085540;28;20095;-65
2022/03/20 08:52:30;;;;;;;8.60;5.22;;;;;;;3.56;30.31;97472.91;5084972;28;20103;-64
2022/03/20 08:54:56;;;;;;;7.97;4.78;;;;;;;3.48;30.30;97464.50;5085236;28;20028;-65
2022/03/20 08:57:25;;;;;;;7.68;4.95;;;;;;;3.52;30.93;97464.25;5085372;28;20051;-65
2022/03/20 08:59:50;;;;;;;7.63;5.25;;;;;;;3.64;30.52;97469.84;5084606;28;20028;-66
2022/03/20 09:02:16;;;;;;;8.05;4.85;;;;;;;3.63;29.84;97471.63;5085184;28;20039;-65
2022/03/20 09:04:41;;;;;;;10.57;5.45;;;;;;;3.72;29.58;97464.97;5084579;28;20024;-65
2022/03/20 09:07:07;;;;;;;8.75;4.50;;;;;;;3.83;29.98;97457.28;5085620;28;20028;-65
2022/03/20 09:09:32;;;;;;;9.32;5.40;;;;;;;3.67;29.62;97454.63;5084989;28;20028;-65
2022/03/20 09:11:57;;;;;;;9.57;5.25;;;;;;;3.71;29.66;97452.63;5085103;28;20016;-66
2022/03/20 09:14:23;;;;;;;10.02;5.25;;;;;;;3.78;29.64;97458.47;5084962;28;20036;-65
2022/03/20 09:19:32;;;;;;;8.52;5.13;;;;;;;3.43;29.80;97444.34;5085316;28;20525;-65
2022/03/20 09:21:58;;;;;;;15.75;5.75;;;;;;;3.43;30.76;97454.97;5084245;28;20418;-66
2022/03/20 09:24:23;;;;;;;6.80;4.82;;;;;;;3.71;29.61;97452.63;5085596;28;20086;-65
2022/03/20 09:26:48;;;;;;;6.65;4.40;;;;;;;3.62;29.47;97445.16;5084427;28;20081;-65
2022/03/20 09:29:16;;;;;;;7.70;4.90;;;;;;;3.56;29.62;97439.25;5085038;28;20028;-65
2022/03/20 09:31:41;;;;;;;8.90;5.57;;;;;;;3.88;28.93;97445.53;5084623;28;20024;-66
2022/03/20 09:34:07;;;;;;;8.23;5.15;;;;;;;3.97;28.55;97437.06;5084584;28;20051;-65
2022/03/20 09:36:32;;;;;;;7.05;4.88;;;;;;;3.80;29.48;97432.69;5085168;28;20336;-66
2022/03/20 09:38:57;;;;;;;7.18;4.65;;;;;;;3.73;28.93;97440.13;5084362;28;20017;-65
2022/03/20 09:41:32;;;;;;;6.97;4.30;;;;;;;3.91;28.86;97427.66;5085056;28;20092;-65
2022/03/20 09:43:58;;;;;;;5.85;4.35;;;;;;;3.82;28.74;97418.38;5083027;28;20107;-65
2022/03/20 09:46:25;;;;;;;7.97;4.30;;;;;;;3.83;28.34;97428.09;5085043;28;20392;-65
2022/03/20 09:48:51;;;;;;;6.13;4.05;;;;;;;3.83;27.52;97430.75;5083430;28;20025;-65
2022/03/20 09:51:17;;;;;;;6.95;4.95;;;;;;;3.53;28.62;97417.34;5083280;28;20437;-66
2022/03/20 09:53:42;;;;;;;5.38;4.28;;;;;;;3.42;28.75;97431.19;5084849;28;20113;-66
2022/03/20 09:56:11;;;;;;;7.03;4.43;;;;;;;3.38;29.46;97416.38;5087916;28;20032;-65
2022/03/20 09:58:36;;;;;;;9.05;4.85;;;;;;;3.73;29.23;97418.91;5088990;28;20031;-66
2022/03/20 10:01:02;;;;;;;10.88;4.32;;;;;;;3.83;29.28;97427.22;5087770;28;20024;-66
2022/03/20 10:03:27;;;;;;;7.80;4.82;;;;;;;3.71;27.89;97410.16;5088965;28;20027;-65
2022/03/20 10:06:16;;;;;;;7.90;4.70;;;;;;;3.79;28.03;97417.72;5088106;28;20031;-65
2022/03/20 10:08:57;;;;;;;8.90;4.60;;;;;;;3.83;28.73;97403.31;5087043;28;20098;-65
2022/03/20 10:11:22;;;;;;;7.57;4.57;;;;;;;3.97;28.17;97407.84;5088504;28;20028;-64
2022/03/20 10:14:09;;;;;;;6.28;4.45;;;;;;;3.92;28.75;97404.59;5087898;28;20024;-65
2022/03/20 10:16:36;;;;;;;7.72;4.40;;;;;;;3.85;27.31;97397.94;5088553;28;20043;-66
2022/03/20 10:19:01;;;;;;;7.72;4.25;;;;;;;4.03;28.06;97396.88;5086489;28;20088;-64
2022/03/20 10:21:46;;;;;;;8.48;4.35;;;;;;;4.21;29.04;97380.81;5088390;28;20039;-66
2022/03/20 10:24:18;;;;;;;13.25;4.55;;;;;;;4.22;27.99;97384.34;5088252;28;20024;-65
2022/03/20 10:26:43;;;;;;;11.53;4.37;;;;;;;4.12;28.19;97389.31;5087904;28;20047;-66
2022/03/20 10:29:16;;;;;;;7.68;4.72;;;;;;;4.37;28.05;97390.59;5088003;28;20081;-66
2022/03/20 10:31:51;;;;;;;7.05;4.75;;;;;;;4.28;27.39;97381.31;5087808;28;20030;-66
2022/03/20 10:34:17;;;;;;;7.57;4.40;;;;;;;4.24;28.52;97374.50;5087534;28;20124;-66
2022/03/20 10:36:43;;;;;;;13.68;5.28;;;;;;;4.38;29.12;97371.03;5088153;28;20107;-64
2022/03/20 10:39:15;;;;;;;7.65;4.28;;;;;;;4.52;28.76;97368.41;5085990;28;20024;-67
2022/03/20 10:41:40;;;;;;;6.47;4.63;;;;;;;4.45;27.89;97373.22;5087979;28;20024;-65
2022/03/20 10:44:14;;;;;;;8.80;5.18;;;;;;;4.38;28.47;97374.53;5087301;28;20035;-65
2022/03/20 10:46:39;;;;;;;7.25;4.75;;;;;;;4.28;28.13;97371.56;5088114;28;20111;-65
2022/03/20 10:49:05;;;;;;;8.63;5.07;;;;;;;4.45;28.08;97367.03;5087303;28;20394;-65
2022/03/20 10:51:41;;;;;;;8.23;4.78;;;;;;;4.60;27.97;97364.44;5086349;28;20426;-65
2022/03/20 10:54:08;;;;;;;7.40;4.45;;;;;;;4.75;27.63;97358.22;5087582;28;20024;-65
2022/03/20 10:56:34;;;;;;;7.45;4.55;;;;;;;4.61;27.78;97366.16;5087113;28;20495;-65
2022/03/20 10:59:02;;;;;;;6.88;4.50;;;;;;;4.60;27.96;97369.75;5087763;28;20025;-66
2022/03/20 11:01:38;;;;;;;6.25;4.43;;;;;;;4.52;27.19;97362.22;5068819;28;20422;-66
2022/03/20 11:04:07;;;;;;;6.65;4.88;;;;;;;4.63;28.26;97356.25;5087723;28;20077;-64
2022/03/20 11:06:33;;;;;;;6.30;4.88;;;;;;;4.80;28.40;97356.09;5086380;28;20395;-66
2022/03/20 11:09:02;;;;;;;9.27;4.75;;;;;;;4.84;28.38;97355.94;5087070;28;20024;-65
2022/03/20 11:11:27;;;;;;;9.57;4.88;;;;;;;4.95;27.23;97349.00;5087036;28;20036;-66
2022/03/20 11:13:53;;;;;;;7.47;4.40;;;;;;;4.76;27.24;97349.28;5085596;28;20046;-65
2022/03/20 11:16:20;;;;;;;7.03;4.25;;;;;;;4.89;27.18;97338.75;5085855;28;20021;-65
2022/03/20 11:18:45;;;;;;;6.55;4.70;;;;;;;4.84;27.22;97335.50;5085563;28;20031;-65
2022/03/20 11:21:11;;;;;;;7.85;4.47;;;;;;;5.00;26.54;97337.25;5068767;28;20031;-65
2022/03/20 11:23:36;;;;;;;6.13;4.13;;;;;;;5.03;26.71;97340.53;5068917;28;20482;-65
2022/03/20 11:26:03;;;;;;;6.40;4.35;;;;;;;5.02;26.87;97338.84;5087089;28;20073;-65
2022/03/20 11:28:29;;;;;;;9.13;4.80;;;;;;;5.09;26.90;97336.66;5086383;28;20055;-65
2022/03/20 11:30:56;;;;;;;8.27;4.65;;;;;;;5.24;26.32;97321.53;5085391;28;20028;-66
2022/03/20 11:33:22;;;;;;;6.05;4.10;;;;;;;5.18;26.54;97327.25;5068288;28;20077;-64
2022/03/20 11:35:48;;;;;;;7.63;4.22;;;;;;;5.22;27.47;97315.47;5085307;28;20426;-65
2022/03/20 11:38:14;;;;;;;10.25;5.75;;;;;;;5.25;26.64;97323.25;5085719;28;20498;-65
2022/03/20 11:40:42;;;;;;;7.40;4.82;;;;;;;5.19;26.12;97299.72;5086289;28;20119;-65
2022/03/20 11:43:16;;;;;;;5.43;4.30;;;;;;;5.17;26.82;97312.25;5086654;28;20060;-65
2022/03/20 11:45:41;;;;;;;6.82;4.78;;;;;;;5.25;26.48;97315.28;5086752;28;20048;-66
2022/03/20 11:48:14;;;;;;;8.80;5.00;;;;;;;5.37;26.34;97315.47;5086358;28;20055;-66
2022/03/20 11:50:44;;;;;;;8.60;4.68;;;;;;;5.38;26.96;97312.69;5086422;28;20564;-66
2022/03/20 11:53:10;;;;;;;7.35;4.65;;;;;;;5.41;26.16;97303.66;5067717;28;20187;-65